Raccoon, Illinois
Current Conditions -  °F | °C
As of 6:35 PM on Sunday 21 Dec 2014 (Local Time) from KENL Reporting Station
Overcast Overcast  
Wind Chill: 33°   Ceiling: 4800
Heat Index: 38°   Visibility: 10mi
Dew Point: 30°   Wind: 7mph
Humidity: 73%   Direction: 120°ESE
Pressure: 30.06"   Gusts: NA
Location:  38.5134°N, 89.1673°W
Report Text: KENL 220035Z AUTO 12006KT 10SM OVC048 03/M01 A3006 RMK AO2 T00331012
Loading
Personal Weather Stations






























Interactive Weather Map New forecast layout! Learn more

10-Day Weather Forecast

Advertisements
Track Severe Weather on mobile